createdAt,value
2019-06-08T00:00:26.878Z,94272.76
2019-06-08T00:03:12.984Z,94261.66
2019-06-08T00:05:52.106Z,94220.57
2019-06-08T00:08:57.904Z,94226.26
2019-06-08T00:18:39.558Z,94698.43
2019-06-08T00:21:42.714Z,94805.91
2019-06-08T00:24:36.571Z,94562.70
2019-06-08T00:27:44.608Z,95249.77
2019-06-08T00:30:26.510Z,95239.66
2019-06-08T00:33:12.469Z,95356.89
2019-06-08T00:35:47.749Z,95359.94
2019-06-08T00:38:26.190Z,95367.81
2019-06-08T00:41:04.427Z,95435.63
2019-06-08T00:43:38.587Z,95465.00
2019-06-08T00:46:10.620Z,95531.70
2019-06-08T00:48:47.254Z,95543.48
2019-06-08T00:51:19.414Z,95662.56
2019-06-08T00:53:51.710Z,95714.23
2019-06-08T00:56:24.107Z,95751.76
2019-06-08T00:58:57.907Z,95808.48
2019-06-08T01:01:34.541Z,95843.73
2019-06-08T01:04:06.773Z,95873.88
2019-06-08T01:06:39.535Z,95912.69
2019-06-08T01:09:12.374Z,95930.89
2019-06-08T01:11:43.870Z,95947.95
2019-06-08T01:14:15.300Z,95988.91
2019-06-08T01:16:47.304Z,95975.32
2019-06-08T01:19:19.214Z,95991.80
2019-06-08T01:21:52.215Z,95999.45
2019-06-08T01:24:23.798Z,96034.19
2019-06-08T01:26:55.086Z,95975.48
2019-06-08T01:29:26.523Z,96022.17
2019-06-08T01:31:57.887Z,96037.67
2019-06-08T01:34:29.251Z,96043.83
2019-06-08T01:37:00.697Z,96042.41
2019-06-08T01:39:32.516Z,96024.81
2019-06-08T01:42:04.218Z,96032.52
2019-06-08T01:44:35.921Z,96029.95
2019-06-08T01:47:07.270Z,96011.38
2019-06-08T01:49:38.636Z,96016.11
2019-06-08T01:52:10.104Z,96056.09
2019-06-08T01:54:41.652Z,96005.69
2019-06-08T01:57:14.616Z,96000.05
2019-06-08T01:59:46.364Z,95999.27
2019-06-08T02:02:17.748Z,95970.34
2019-06-08T02:04:49.193Z,96009.78
2019-06-08T02:07:20.679Z,95980.56
2019-06-08T02:09:52.396Z,96016.63
2019-06-08T02:12:24.809Z,96042.89
2019-06-08T02:14:56.275Z,96059.19
2019-06-08T02:17:27.797Z,96056.09
2019-06-08T02:19:59.223Z,96109.50
2019-06-08T02:22:30.992Z,96104.98
2019-06-08T02:25:02.563Z,96084.30
2019-06-08T02:27:35.453Z,96149.31
2019-06-08T02:30:08.945Z,96152.25
2019-06-08T02:32:40.946Z,96140.77
2019-06-08T02:35:12.562Z,96254.70
2019-06-08T02:37:44.082Z,96355.24
2019-06-08T02:40:16.463Z,96331.19
2019-06-08T02:42:47.894Z,96319.88
2019-06-08T02:45:19.897Z,96322.31
2019-06-08T02:47:52.450Z,96327.03
2019-06-08T02:51:08.892Z,96337.11
2019-06-08T02:53:41.565Z,96331.48
2019-06-08T02:56:15.880Z,96348.76
2019-06-08T02:58:50.512Z,96385.98
2019-06-08T03:01:23.741Z,96418.73
2019-06-08T03:03:56.748Z,96521.30
2019-06-08T03:06:32.337Z,96540.42
2019-06-08T03:09:06.733Z,96540.92
2019-06-08T03:11:39.188Z,96596.73
2019-06-08T03:14:11.191Z,96634.07
2019-06-08T03:16:43.470Z,96741.05
2019-06-08T03:19:21.651Z,96778.05
2019-06-08T03:21:48.607Z,96811.52
2019-06-08T03:24:20.398Z,96865.19
2019-06-08T03:26:53.851Z,96899.61
2019-06-08T03:29:25.253Z,96930.51
2019-06-08T03:31:57.823Z,96991.41
2019-06-08T03:34:29.237Z,97052.89
2019-06-08T03:37:00.750Z,97099.78
2019-06-08T03:39:32.200Z,97126.80
2019-06-08T03:42:03.530Z,97153.44
2019-06-08T03:44:36.144Z,97185.50
2019-06-08T03:47:07.524Z,97167.45
2019-06-08T03:49:47.491Z,97261.58
2019-06-08T03:52:12.444Z,97293.05
2019-06-08T03:54:46.964Z,97392.33
2019-06-08T03:57:18.503Z,97466.59
2019-06-08T03:59:51.714Z,97485.84
2019-06-08T04:02:23.599Z,97524.72
2019-06-08T04:04:55.334Z,97571.09
2019-06-08T04:07:27.200Z,97573.60
2019-06-08T04:09:58.525Z,97587.50
2019-06-08T04:12:29.809Z,97660.28
2019-06-08T04:15:01.404Z,97687.33
2019-06-08T04:17:35.641Z,97677.17
2019-06-08T04:20:11.552Z,97634.39
2019-06-08T04:22:47.024Z,97689.35
2019-06-08T04:25:18.084Z,97732.41
2019-06-08T04:27:51.051Z,97750.00
2019-06-08T04:30:22.828Z,97744.63
2019-06-08T04:32:54.661Z,97759.33
2019-06-08T04:35:27.162Z,97784.20
2019-06-08T04:37:58.620Z,97821.48
2019-06-08T04:40:30.465Z,97911.47
2019-06-08T04:43:01.899Z,97957.73
2019-06-08T04:45:33.739Z,97986.84
2019-06-08T04:48:09.289Z,97973.92
2019-06-08T04:50:38.734Z,98004.52
2019-06-08T04:53:10.632Z,97987.68
2019-06-08T04:55:43.423Z,98042.27
2019-06-08T04:58:15.801Z,98070.81
2019-06-08T05:00:48.744Z,98106.11
2019-06-08T05:03:22.443Z,98136.83
2019-06-08T05:05:54.012Z,98173.17
2019-06-08T05:08:26.086Z,98169.44
2019-06-08T05:10:57.914Z,98247.55
2019-06-08T05:13:41.174Z,98288.94
2019-06-08T05:16:12.774Z,98259.70
2019-06-08T05:18:45.292Z,98282.19
2019-06-08T05:21:16.715Z,98297.38
2019-06-08T05:23:57.568Z,98346.92
2019-06-08T05:26:21.105Z,98324.77
2019-06-08T05:28:53.986Z,98330.02
2019-06-08T05:31:25.940Z,98355.87
2019-06-08T05:33:59.087Z,98412.70
2019-06-08T05:36:34.458Z,98451.77
2019-06-08T05:39:07.934Z,98460.19
2019-06-08T05:41:49.829Z,98546.95
2019-06-08T05:44:21.994Z,98519.69
2019-06-08T05:46:53.948Z,98424.03
2019-06-08T05:49:25.416Z,98466.15
2019-06-08T05:51:56.713Z,98591.25
2019-06-08T05:54:28.109Z,98682.92
2019-06-08T05:57:00.406Z,98858.34
2019-06-08T05:59:31.829Z,98955.89
2019-06-08T06:02:03.275Z,98876.20
2019-06-08T06:04:35.043Z,98932.14
2019-06-08T06:07:06.896Z,99018.03
2019-06-08T06:09:41.131Z,98799.68
2019-06-08T06:12:13.071Z,99025.64
2019-06-08T06:14:46.840Z,99156.09
2019-06-08T06:17:19.541Z,99109.89
2019-06-08T06:19:51.561Z,99073.06
2019-06-08T06:22:23.462Z,99259.20
2019-06-08T06:24:54.850Z,99390.69
2019-06-08T06:27:27.259Z,99467.28
2019-06-08T06:30:02.035Z,99418.25
2019-06-08T06:32:34.828Z,99582.45
2019-06-08T06:35:11.490Z,99773.61
2019-06-08T06:38:10.013Z,99634.46
2019-06-08T06:40:48.070Z,99727.92
2019-06-08T06:43:28.213Z,99761.60
2019-06-08T06:46:35.775Z,99654.16
2019-06-08T06:49:28.109Z,99530.89
2019-06-08T06:52:22.900Z,99514.83
2019-06-08T06:54:47.185Z,99501.49
2019-06-08T06:57:19.634Z,99444.76
2019-06-08T07:00:07.115Z,99459.37
2019-06-08T07:02:48.071Z,99355.60
2019-06-08T07:05:29.286Z,99519.34
2019-06-08T07:08:04.951Z,99493.84
2019-06-08T07:10:37.060Z,99573.89
2019-06-08T07:13:20.941Z,99615.94
2019-06-08T07:15:54.899Z,99671.47
2019-06-08T07:18:27.035Z,99711.61
2019-06-08T07:20:58.617Z,99752.84
2019-06-08T07:23:30.812Z,99761.47
2019-06-08T07:26:03.076Z,99795.29
2019-06-08T07:28:34.751Z,99800.84
2019-06-08T07:31:06.245Z,99827.89
2019-06-08T07:33:37.583Z,99809.60
2019-06-08T07:36:12.709Z,99802.46
2019-06-08T07:38:44.962Z,99837.37
2019-06-08T07:41:17.141Z,99841.73
2019-06-08T07:43:52.887Z,99857.06
2019-06-08T07:46:24.560Z,99807.85
2019-06-08T07:48:56.635Z,99805.36
2019-06-08T07:51:31.690Z,99822.93
2019-06-08T07:54:04.325Z,99933.36
2019-06-08T07:56:36.149Z,99985.28
2019-06-08T07:59:07.991Z,99989.06
2019-06-08T08:01:59.307Z,100022.98
2019-06-08T08:04:43.091Z,99952.32
2019-06-08T08:10:37.849Z,99974.25
2019-06-08T08:13:12.378Z,99919.50
2019-06-08T08:15:54.267Z,99996.70
2019-06-08T08:18:26.184Z,99969.82
2019-06-08T08:21:04.363Z,99931.64
2019-06-08T08:23:34.381Z,99880.70
2019-06-08T08:26:06.181Z,99900.34
2019-06-08T08:28:37.621Z,99912.83
2019-06-08T08:31:11.371Z,99952.00
2019-06-08T08:33:42.209Z,99970.80
2019-06-08T08:36:15.494Z,100009.09
2019-06-08T08:38:47.878Z,100018.62
2019-06-08T08:41:19.370Z,100071.91
2019-06-08T08:43:52.634Z,99919.42
2019-06-08T08:46:25.041Z,99994.47
2019-06-08T08:49:06.017Z,100093.97
2019-06-08T08:51:54.434Z,100099.40
2019-06-08T08:55:04.016Z,100138.94
2019-06-08T08:57:59.430Z,100117.16
2019-06-08T09:00:44.697Z,100137.66
2019-06-08T09:04:12.713Z,100148.06
2019-06-08T09:06:32.564Z,100150.81
2019-06-08T09:09:08.683Z,100213.17
2019-06-08T09:11:41.345Z,100215.34
2019-06-08T09:14:14.281Z,100220.88
2019-06-08T09:16:48.198Z,100187.02
2019-06-08T09:19:21.036Z,100188.22
2019-06-08T09:21:54.046Z,100207.82
2019-06-08T09:24:25.589Z,100202.74
2019-06-08T09:27:00.881Z,100198.88
2019-06-08T09:30:44.603Z,100180.73
2019-06-08T09:33:18.591Z,100152.14
2019-06-08T09:35:49.560Z,100206.87
2019-06-08T09:38:21.351Z,100179.21
2019-06-08T09:40:54.983Z,100179.89
2019-06-08T09:43:28.748Z,100214.41
2019-06-08T09:46:02.054Z,100199.50
2019-06-08T09:48:32.962Z,100207.35
2019-06-08T09:51:05.850Z,100241.47
2019-06-08T09:53:41.398Z,100176.34
2019-06-08T09:56:11.891Z,100169.98
2019-06-08T10:00:26.351Z,100234.28
2019-06-08T10:02:58.947Z,100252.79
2019-06-08T10:05:28.819Z,100291.17
2019-06-08T10:08:02.159Z,100344.98
2019-06-08T10:10:33.832Z,100384.89
2019-06-08T10:13:09.363Z,100410.75
2019-06-08T10:15:39.281Z,100417.77
2019-06-08T10:18:12.172Z,100422.45
2019-06-08T10:20:45.065Z,100466.02
2019-06-08T10:23:30.835Z,100497.16
2019-06-08T10:25:50.912Z,100499.53
2019-06-08T10:28:22.868Z,100499.28
2019-06-08T10:32:38.910Z,100550.03
2019-06-08T10:35:11.036Z,100545.13
2019-06-08T10:37:42.786Z,100537.23
2019-06-08T10:40:14.886Z,100570.39
2019-06-08T10:42:48.244Z,100607.44
2019-06-08T10:45:20.075Z,100614.02
2019-06-08T10:47:51.639Z,100625.41
2019-06-08T10:50:24.765Z,100662.80
2019-06-08T10:55:04.940Z,100649.09
2019-06-08T10:57:37.454Z,100609.30
2019-06-08T11:00:19.300Z,100624.30
2019-06-08T11:02:43.359Z,100599.33
2019-06-08T11:05:17.899Z,100590.94
2019-06-08T11:07:48.685Z,100605.16
2019-06-08T11:10:20.381Z,100599.45
2019-06-08T11:12:51.785Z,100604.41
2019-06-08T11:15:23.796Z,100599.28
2019-06-08T11:18:00.453Z,100592.88
2019-06-08T11:20:30.160Z,100600.08
2019-06-08T11:23:03.488Z,100591.32
2019-06-08T11:25:37.546Z,100604.78
2019-06-08T11:28:13.802Z,100617.19
2019-06-08T11:30:41.413Z,100644.73
2019-06-08T11:33:15.913Z,100644.15
2019-06-08T11:35:47.257Z,100638.80
2019-06-08T11:38:20.295Z,100637.95
2019-06-08T11:40:51.769Z,100646.21
2019-06-08T11:43:23.147Z,100618.76
2019-06-08T11:45:54.514Z,100633.77
2019-06-08T11:50:07.292Z,100665.69
2019-06-08T11:52:39.103Z,100629.20
2019-06-08T11:55:12.694Z,100656.76
2019-06-08T11:57:44.247Z,100671.25
2019-06-08T12:00:30.191Z,100666.59
2019-06-08T12:02:58.148Z,100685.29
2019-06-08T12:05:29.736Z,100679.40
2019-06-08T12:08:04.376Z,100674.66
2019-06-08T12:10:38.253Z,100666.52
2019-06-08T12:13:12.618Z,100663.84
2019-06-08T12:15:48.195Z,100648.67
2019-06-08T12:18:19.692Z,100616.98
2019-06-08T12:20:51.447Z,100639.16
2019-06-08T12:23:22.817Z,100609.95
2019-06-08T12:25:56.595Z,100600.43
2019-06-08T12:28:28.381Z,100577.28
2019-06-08T12:31:01.046Z,100549.82
2019-06-08T12:36:01.042Z,100559.50
2019-06-08T12:38:34.642Z,100561.73
2019-06-08T12:41:07.956Z,100603.16
2019-06-08T12:43:38.674Z,100592.73
2019-06-08T12:46:12.585Z,100589.20
2019-06-08T12:48:43.100Z,100563.75
2019-06-08T12:51:16.448Z,100586.77
2019-06-08T12:53:48.068Z,100598.33
2019-06-08T12:56:23.940Z,100630.91
2019-06-08T12:58:52.517Z,100627.14
2019-06-08T13:01:25.299Z,100642.45
2019-06-08T13:03:59.508Z,100660.72
2019-06-08T13:06:32.503Z,100655.52
2019-06-08T13:09:08.996Z,100667.61
2019-06-08T13:11:45.857Z,100643.22
2019-06-08T13:14:21.623Z,100672.02
2019-06-08T13:16:55.445Z,100648.80
2019-06-08T13:19:27.703Z,100659.58
2019-06-08T13:22:00.086Z,100645.83
2019-06-08T13:24:41.731Z,100640.28
2019-06-08T13:27:15.129Z,100654.47
2019-06-08T13:29:48.773Z,100622.14
2019-06-08T13:32:21.874Z,100628.71
2019-06-08T13:34:54.372Z,100637.45
2019-06-08T13:37:27.572Z,100610.36
2019-06-08T13:39:59.454Z,100551.22
2019-06-08T13:42:31.374Z,100478.67
2019-06-08T13:45:03.512Z,100429.84
2019-06-08T13:47:40.464Z,100417.45
2019-06-08T13:50:10.970Z,100460.97
2019-06-08T13:52:43.269Z,100455.61
2019-06-08T13:55:32.775Z,100510.30
2019-06-08T13:57:49.178Z,100525.91
2019-06-08T14:00:32.792Z,100521.85
2019-06-08T14:03:04.561Z,100547.27
2019-06-08T14:05:38.533Z,100577.75
2019-06-08T14:08:10.961Z,100642.17
2019-06-08T14:10:43.874Z,100656.33
2019-06-08T14:13:15.248Z,100666.40
2019-06-08T14:15:48.779Z,100699.62
2019-06-08T14:18:26.275Z,100699.94
2019-06-08T14:20:58.523Z,100700.86
2019-06-08T14:23:43.387Z,100732.60
2019-06-08T14:26:14.806Z,100700.22
2019-06-08T14:28:46.103Z,100725.22
2019-06-08T14:31:19.763Z,100726.27
2019-06-08T14:33:51.034Z,100713.66
2019-06-08T14:36:23.247Z,100708.41
2019-06-08T14:39:01.737Z,100699.89
2019-06-08T14:41:31.406Z,100699.89
2019-06-08T14:44:02.096Z,100692.86
2019-06-08T14:46:33.803Z,100690.91
2019-06-08T14:49:06.246Z,100754.02
2019-06-08T14:51:51.114Z,100749.83
2019-06-08T14:54:26.688Z,100733.70
2019-06-08T14:56:57.849Z,100753.77
2019-06-08T14:59:31.597Z,100763.50
2019-06-08T15:02:02.632Z,100767.29
2019-06-08T15:04:36.879Z,100752.85
2019-06-08T15:07:09.541Z,100766.66
2019-06-08T15:09:41.502Z,100765.11
2019-06-08T15:12:12.832Z,100792.20
2019-06-08T15:14:44.342Z,100783.73
2019-06-08T15:17:16.216Z,100783.59
2019-06-08T15:19:47.669Z,100777.45
2019-06-08T15:22:20.749Z,100774.20
2019-06-08T15:24:52.649Z,100777.20
2019-06-08T15:27:25.876Z,100771.01
2019-06-08T15:29:58.664Z,100773.38
2019-06-08T15:32:33.912Z,100770.88
2019-06-08T15:35:05.026Z,100766.85
2019-06-08T15:37:38.062Z,100765.13
2019-06-08T15:40:10.816Z,100758.89
2019-06-08T15:42:42.239Z,100769.95
2019-06-08T15:45:13.739Z,100751.22
2019-06-08T15:47:45.080Z,100763.56
2019-06-08T15:50:17.937Z,100752.58
2019-06-08T15:52:49.519Z,100748.77
2019-06-08T15:55:22.882Z,100750.59
2019-06-08T15:57:54.767Z,100760.67
2019-06-08T16:00:28.353Z,100777.33
2019-06-08T16:03:01.082Z,100785.98
2019-06-08T16:05:33.852Z,100782.63
2019-06-08T16:08:42.596Z,100790.48
2019-06-08T16:11:13.952Z,100775.39
2019-06-08T16:13:45.293Z,100786.16
2019-06-08T16:16:16.650Z,100802.53
2019-06-08T16:18:48.034Z,100808.59
2019-06-08T16:21:19.432Z,100811.30
2019-06-08T16:23:50.989Z,100812.16
2019-06-08T16:26:22.423Z,100815.88
2019-06-08T16:28:54.044Z,100829.66
2019-06-08T16:31:26.981Z,100829.91
2019-06-08T16:33:58.635Z,100834.37
2019-06-08T16:36:31.406Z,100822.15
2019-06-08T16:39:04.528Z,100830.55
2019-06-08T16:41:36.362Z,100838.17
2019-06-08T16:44:07.799Z,100853.92
2019-06-08T16:46:39.526Z,100856.84
2019-06-08T16:49:11.012Z,100860.90
2019-06-08T16:51:42.540Z,100845.95
2019-06-08T16:54:13.915Z,100848.53
2019-06-08T16:56:45.424Z,100823.73
2019-06-08T16:59:16.767Z,100496.28
2019-06-08T17:01:48.143Z,100304.98
2019-06-08T17:04:19.472Z,100200.81
2019-06-08T17:06:50.922Z,100205.25
2019-06-08T17:09:23.261Z,100244.48
2019-06-08T17:11:54.959Z,100292.80
2019-06-08T17:14:26.296Z,100322.81
2019-06-08T17:16:57.607Z,100342.36
2019-06-08T17:19:29.930Z,100389.48
2019-06-08T17:22:04.724Z,100413.14
2019-06-08T17:24:38.985Z,100476.77
2019-06-08T17:27:25.923Z,100505.41
2019-06-08T17:29:43.537Z,100536.17
2019-06-08T17:32:18.041Z,100558.75
2019-06-08T17:34:49.552Z,100593.70
2019-06-08T17:37:21.332Z,100616.16
2019-06-08T17:39:52.784Z,100626.41
2019-06-08T17:42:24.342Z,100659.25
2019-06-08T17:44:56.644Z,100722.66
2019-06-08T17:47:28.046Z,100763.54
2019-06-08T17:49:59.451Z,100795.20
2019-06-08T17:52:32.748Z,100844.38
2019-06-08T17:55:05.208Z,100856.87
2019-06-08T17:57:44.695Z,100850.41
2019-06-08T18:00:11.469Z,100878.28
2019-06-08T18:02:45.243Z,100863.87
2019-06-08T18:05:17.956Z,100872.62
2019-06-08T18:07:49.754Z,100872.38
2019-06-08T18:10:21.312Z,100857.25
2019-06-08T18:12:52.683Z,100868.14
2019-06-08T18:15:24.368Z,100856.22
2019-06-08T18:17:57.683Z,100865.17
2019-06-08T18:20:28.953Z,100859.15
2019-06-08T18:23:01.738Z,100868.78
2019-06-08T18:25:34.251Z,100864.55
2019-06-08T18:28:11.025Z,100838.91
2019-06-08T18:30:41.743Z,100883.38
2019-06-08T18:33:12.688Z,100851.03
2019-06-08T18:35:44.884Z,100895.52
2019-06-08T18:38:18.044Z,100906.17
2019-06-08T18:40:52.479Z,100934.86
2019-06-08T18:43:52.731Z,100944.86
2019-06-08T18:46:29.568Z,100946.15
2019-06-08T18:49:04.205Z,100966.05
2019-06-08T18:51:38.153Z,100969.48
2019-06-08T18:54:30.248Z,100958.77
2019-06-08T18:57:05.379Z,100972.85
2019-06-08T18:59:41.842Z,100969.43
2019-06-08T19:02:09.366Z,100948.76
2019-06-08T19:04:54.440Z,100940.73
2019-06-08T19:07:28.286Z,100924.40
2019-06-08T19:10:04.180Z,100932.62
2019-06-08T19:12:38.337Z,100925.35
2019-06-08T19:15:11.462Z,100924.19
2019-06-08T19:17:48.246Z,100917.59
2019-06-08T19:20:17.497Z,100887.66
2019-06-08T19:22:54.121Z,100887.72
2019-06-08T19:25:22.784Z,100869.03
2019-06-08T19:27:54.519Z,100866.64
2019-06-08T19:30:28.143Z,100870.05
2019-06-08T19:32:59.967Z,100852.56
2019-06-08T19:35:34.571Z,100855.00
2019-06-08T19:38:07.270Z,100840.77
2019-06-08T19:40:39.546Z,100817.72
2019-06-08T19:43:13.402Z,100812.28
2019-06-08T19:45:46.444Z,100793.58
2019-06-08T19:48:17.991Z,100780.30
2019-06-08T19:50:54.044Z,100779.28
2019-06-08T19:53:22.443Z,100770.80
2019-06-08T19:55:54.282Z,100764.66
2019-06-08T19:58:28.298Z,100742.36
2019-06-08T20:00:59.620Z,100737.84
2019-06-08T20:03:31.114Z,100711.45
2019-06-08T20:06:02.915Z,100688.03
2019-06-08T20:08:34.801Z,100699.62
2019-06-08T20:11:08.324Z,100696.20
2019-06-08T20:13:39.619Z,100672.89
2019-06-08T20:16:11.037Z,100671.27
2019-06-08T20:18:43.578Z,100676.67
2019-06-08T20:21:15.025Z,100675.05
2019-06-08T20:23:48.270Z,100677.13
2019-06-08T20:26:19.553Z,100685.53
2019-06-08T20:28:57.680Z,100676.79
2019-06-08T20:31:24.177Z,100660.69
2019-06-08T20:33:57.618Z,100687.87
2019-06-08T20:36:30.200Z,100709.31
2019-06-08T20:39:01.596Z,100706.85
2019-06-08T20:41:37.460Z,100698.92
2019-06-08T20:44:08.833Z,100712.66
2019-06-08T20:46:40.372Z,100706.91
2019-06-08T20:49:12.164Z,100715.63
2019-06-08T20:51:44.790Z,100718.55
2019-06-08T20:54:17.222Z,100723.84
2019-06-08T20:56:50.492Z,100716.02
2019-06-08T20:59:29.977Z,100718.73
2019-06-08T21:01:58.636Z,100726.16
2019-06-08T21:04:32.443Z,100711.65
2019-06-08T21:07:03.849Z,100711.70
2019-06-08T21:09:37.099Z,100730.53
2019-06-08T21:12:08.455Z,100713.38
2019-06-08T21:14:40.169Z,100700.89
2019-06-08T21:17:11.593Z,100694.94
2019-06-08T21:19:43.044Z,100703.93
2019-06-08T21:22:14.468Z,100696.95
2019-06-08T21:24:50.037Z,100697.89
2019-06-08T21:27:19.164Z,100702.74
2019-06-08T21:29:59.763Z,100693.80
2019-06-08T21:32:27.676Z,100662.19
2019-06-08T21:35:00.235Z,100648.69
2019-06-08T21:37:31.519Z,100652.78
2019-06-08T21:40:04.223Z,100625.90
2019-06-08T21:42:37.074Z,100595.48
2019-06-08T21:45:09.616Z,100607.20
2019-06-08T21:47:41.262Z,100741.45
2019-06-08T21:50:12.894Z,100616.30
2019-06-08T21:52:44.270Z,100542.77
2019-06-08T21:55:17.712Z,100515.09
2019-06-08T21:57:51.108Z,100474.16
2019-06-08T22:00:38.854Z,100461.85
2019-06-08T22:03:00.148Z,100468.66
2019-06-08T22:05:32.068Z,100482.83
2019-06-08T22:08:03.726Z,100487.37
2019-06-08T22:10:37.551Z,100500.25
2019-06-08T22:13:10.351Z,100513.44
2019-06-08T22:15:41.973Z,100521.94
2019-06-08T22:18:13.799Z,100529.39
2019-06-08T22:20:47.382Z,100527.33
2019-06-08T22:23:18.178Z,100532.27
2019-06-08T22:25:49.500Z,100538.22
2019-06-08T22:28:20.877Z,100542.78
2019-06-08T22:30:53.572Z,100551.16
2019-06-08T22:33:25.283Z,100560.14
2019-06-08T22:35:58.678Z,100567.45
2019-06-08T22:38:29.850Z,100555.94
2019-06-08T22:41:02.082Z,100567.61
2019-06-08T22:43:37.259Z,100579.08
2019-06-08T22:47:50.653Z,100585.66
2019-06-08T22:50:22.014Z,100572.41
2019-06-08T22:52:53.986Z,100574.75
2019-06-08T22:55:27.749Z,100575.08
2019-06-08T22:58:01.846Z,100580.49
2019-06-08T23:00:45.913Z,100587.23
2019-06-08T23:03:08.607Z,100594.03
2019-06-08T23:05:40.280Z,100590.02
2019-06-08T23:08:11.697Z,100585.51
2019-06-08T23:10:43.073Z,100580.36
2019-06-08T23:13:14.389Z,100584.84
2019-06-08T23:15:47.827Z,100590.80
2019-06-08T23:18:19.516Z,100582.92
2019-06-08T23:20:51.083Z,100590.44
2019-06-08T23:23:22.941Z,100592.75
2019-06-08T23:25:55.609Z,100587.14
2019-06-08T23:28:28.253Z,100596.97
2019-06-08T23:31:11.845Z,100603.64
2019-06-08T23:33:32.932Z,100612.22
2019-06-08T23:38:37.662Z,100607.71
2019-06-08T23:41:10.172Z,100596.58
2019-06-08T23:43:41.630Z,100601.65
2019-06-08T23:46:13.146Z,100596.80
2019-06-08T23:48:44.488Z,100605.30
2019-06-08T23:51:18.045Z,100612.06
2019-06-08T23:53:49.302Z,100617.53
2019-06-08T23:56:20.724Z,100625.61
2019-06-08T23:58:52.076Z,100630.55
